Terminal Aerodrome Forecast
Issued by NWS Buffalo, NY

Home | Current Version | Previous Version | Text Only | Print | Product List | Glossary On
Versions: 1 2 3 4 5 6 7 8 9 10 11 12 13 14 15 16 17 18 19 20 21 22 23 24
394
FTUS41 KBUF 310526
TAFBUF
TAF
KBUF 310526Z 3106/0106 20005KT P6SM FEW080
     FM311400 29005KT P6SM FEW250
     FM312200 33008KT P6SM FEW250
     FM010100 01006KT P6SM FEW250
     FM010500 06006KT P6SM FEW250=

USA.gov is the U.S. government's official web portal to all federal, state and local government web resources and services.